createdAt,value
2023-01-03T00:02:11.337Z,102163.81
2023-01-03T00:04:37.848Z,102174.06
2023-01-03T00:07:04.377Z,102170.03
2023-01-03T00:09:30.847Z,102165.25
2023-01-03T00:12:15.841Z,102170.78
2023-01-03T00:14:43.714Z,102171.19
2023-01-03T00:17:11.558Z,102178.66
2023-01-03T00:19:40.777Z,102177.03
2023-01-03T00:22:07.801Z,102191.19
2023-01-03T00:24:34.344Z,102193.38
2023-01-03T00:27:00.799Z,102189.19
2023-01-03T00:29:27.283Z,102197.81
2023-01-03T00:31:53.759Z,102202.34
2023-01-03T00:34:20.166Z,102204.22
2023-01-03T00:36:46.641Z,102202.53
2023-01-03T00:39:13.361Z,102210.13
2023-01-03T00:41:39.916Z,102206.19
2023-01-03T00:44:06.977Z,102204.72
2023-01-03T00:46:33.739Z,102200.81
2023-01-03T00:49:00.372Z,102212.38
2023-01-03T00:51:28.447Z,102211.00
2023-01-03T00:53:56.702Z,102214.34
2023-01-03T00:56:25.390Z,102219.44
2023-01-03T00:58:52.322Z,102220.78
2023-01-03T01:01:25.241Z,102214.31
2023-01-03T01:03:56.746Z,102216.25
2023-01-03T01:06:25.937Z,102225.84
2023-01-03T01:08:54.587Z,102236.69
2023-01-03T01:11:21.725Z,102228.06
2023-01-03T01:13:48.917Z,102238.63
2023-01-03T01:16:19.957Z,102240.88
2023-01-03T01:18:48.213Z,102247.13
2023-01-03T01:21:27.845Z,102248.56
2023-01-03T01:23:54.688Z,102250.75
2023-01-03T01:26:22.521Z,102255.94
2023-01-03T01:28:50.201Z,102255.06
2023-01-03T01:31:19.500Z,102265.19
2023-01-03T01:33:46.202Z,102280.06
2023-01-03T01:36:27.867Z,102271.25
2023-01-03T01:38:56.915Z,102276.44
2023-01-03T01:41:42.742Z,102273.88
2023-01-03T01:44:46.314Z,102280.63
2023-01-03T01:47:27.135Z,102283.91
2023-01-03T01:50:22.744Z,102288.22
2023-01-03T01:53:05.083Z,102283.41
2023-01-03T01:55:35.882Z,102286.88
2023-01-03T01:58:02.601Z,102289.09
2023-01-03T02:00:29.938Z,102286.44
2023-01-03T02:02:56.633Z,102281.53
2023-01-03T02:05:23.477Z,102288.44
2023-01-03T02:07:51.268Z,102286.69
2023-01-03T02:10:19.209Z,102288.00
2023-01-03T02:13:05.683Z,102287.22
2023-01-03T02:16:01.670Z,102287.00
2023-01-03T02:18:36.732Z,102288.09
2023-01-03T02:21:39.559Z,102286.44
2023-01-03T02:24:24.286Z,102282.75
2023-01-03T02:27:01.525Z,102279.84
2023-01-03T02:29:40.483Z,102278.09
2023-01-03T02:32:13.746Z,102284.94
2023-01-03T02:34:50.756Z,102291.06
2023-01-03T02:37:40.732Z,102289.53
2023-01-03T02:40:16.720Z,102292.19
2023-01-03T02:43:01.544Z,102295.25
2023-01-03T02:45:37.133Z,102292.41
2023-01-03T02:48:09.293Z,102292.28
2023-01-03T02:50:50.146Z,102290.75
2023-01-03T02:53:21.393Z,102284.22
2023-01-03T02:55:49.587Z,102293.38
2023-01-03T02:58:19.175Z,102292.03
2023-01-03T03:00:51.051Z,102295.63
2023-01-03T03:03:21.687Z,102287.50
2023-01-03T03:05:59.974Z,102294.78
2023-01-03T03:08:26.535Z,102295.84
2023-01-03T03:11:12.137Z,102305.56
2023-01-03T03:13:47.106Z,102290.97
2023-01-03T03:16:43.375Z,102294.50
2023-01-03T03:19:49.167Z,102302.69
2023-01-03T03:23:00.972Z,102306.25
2023-01-03T03:25:34.210Z,102317.22
2023-01-03T03:28:23.918Z,102315.66
2023-01-03T03:30:52.935Z,102329.78
2023-01-03T03:33:20.247Z,102333.78
2023-01-03T03:35:49.866Z,102340.75
2023-01-03T03:38:23.003Z,102331.75
2023-01-03T03:41:17.137Z,102333.28
2023-01-03T03:44:07.418Z,102336.47
2023-01-03T03:46:41.505Z,102339.22
2023-01-03T03:49:32.738Z,102339.69
2023-01-03T03:52:00.723Z,102337.81
2023-01-03T03:54:28.718Z,102341.44
2023-01-03T03:57:01.925Z,102340.41
2023-01-03T03:59:31.055Z,102343.38
2023-01-03T04:01:58.990Z,102354.97
2023-01-03T04:04:29.342Z,102346.69
2023-01-03T04:06:55.759Z,102348.34
2023-01-03T04:09:22.364Z,102345.41
2023-01-03T04:11:48.864Z,102349.16
2023-01-03T04:14:15.351Z,102357.16
2023-01-03T04:16:41.833Z,102351.88
2023-01-03T04:19:08.629Z,102353.28
2023-01-03T04:21:36.565Z,102355.50
2023-01-03T04:24:06.520Z,102365.34
2023-01-03T04:26:32.966Z,102357.94
2023-01-03T04:28:59.346Z,102355.94
2023-01-03T04:31:25.799Z,102365.50
2023-01-03T04:33:53.975Z,102361.25
2023-01-03T04:36:21.099Z,102359.81
2023-01-03T04:38:47.553Z,102357.16
2023-01-03T04:41:13.930Z,102357.66
2023-01-03T04:43:59.083Z,102361.88
2023-01-03T04:46:25.655Z,102358.53
2023-01-03T04:48:52.172Z,102356.97
2023-01-03T04:51:18.641Z,102358.78
2023-01-03T04:53:45.126Z,102364.59
2023-01-03T04:56:11.511Z,102357.31
2023-01-03T04:58:37.952Z,102356.25
2023-01-03T05:01:08.018Z,102357.97
2023-01-03T05:03:34.849Z,102355.34
2023-01-03T05:06:09.191Z,102357.06
2023-01-03T05:08:36.218Z,102360.63
2023-01-03T05:11:03.058Z,102364.81
2023-01-03T05:13:29.588Z,102365.44
2023-01-03T05:15:56.052Z,102373.66
2023-01-03T05:18:22.993Z,102369.16
2023-01-03T05:21:08.189Z,102360.97
2023-01-03T05:23:53.242Z,102372.38
2023-01-03T05:26:20.875Z,102377.34
2023-01-03T05:28:50.557Z,102375.66
2023-01-03T05:31:17.098Z,102363.38
2023-01-03T05:33:43.592Z,102371.75
2023-01-03T05:36:10.625Z,102366.16
2023-01-03T05:38:37.499Z,102360.72
2023-01-03T05:41:04.520Z,102375.69
2023-01-03T05:43:30.953Z,102367.66
2023-01-03T05:45:57.430Z,102382.19
2023-01-03T05:48:23.960Z,102384.47
2023-01-03T05:50:50.925Z,102393.50
2023-01-03T05:53:17.508Z,102382.63
2023-01-03T05:55:44.015Z,102388.50
2023-01-03T05:58:11.397Z,102395.03
2023-01-03T06:00:37.976Z,102394.25
2023-01-03T06:03:04.497Z,102392.88
2023-01-03T06:05:30.964Z,102393.66
2023-01-03T06:08:00.044Z,102391.19
2023-01-03T06:10:26.456Z,102402.84
2023-01-03T06:12:53.045Z,102404.44
2023-01-03T06:15:20.510Z,102403.34
2023-01-03T06:17:57.870Z,102413.91
2023-01-03T06:20:28.259Z,102416.06
2023-01-03T06:22:54.955Z,102427.19
2023-01-03T06:25:22.348Z,102424.06
2023-01-03T06:27:48.992Z,102419.09
2023-01-03T06:30:15.878Z,102429.72
2023-01-03T06:32:43.198Z,102422.56
2023-01-03T06:35:09.897Z,102428.41
2023-01-03T06:37:36.337Z,102423.00
2023-01-03T06:40:03.236Z,102423.25
2023-01-03T06:42:44.713Z,102428.78
2023-01-03T06:45:31.851Z,102428.91
2023-01-03T06:48:17.494Z,102438.34
2023-01-03T06:51:03.003Z,102435.03
2023-01-03T06:53:33.925Z,102450.63
2023-01-03T06:56:00.474Z,102448.44
2023-01-03T06:58:27.441Z,102451.78
2023-01-03T07:00:54.209Z,102446.50
2023-01-03T07:03:21.283Z,102447.81
2023-01-03T07:06:22.865Z,102463.03
2023-01-03T07:08:49.457Z,102459.00
2023-01-03T07:14:00.095Z,102466.50
2023-01-03T07:16:38.777Z,102477.84
2023-01-03T07:19:06.540Z,102475.66
2023-01-03T07:21:34.279Z,102477.19
2023-01-03T07:24:03.354Z,102479.06
2023-01-03T07:26:31.094Z,102475.66
2023-01-03T07:28:58.323Z,102487.88
2023-01-03T07:31:24.996Z,102477.72
2023-01-03T07:33:52.996Z,102478.50
2023-01-03T07:36:20.359Z,102480.03
2023-01-03T07:38:47.301Z,102488.63
2023-01-03T07:41:14.774Z,102495.88
2023-01-03T07:43:45.036Z,102500.53
2023-01-03T07:46:22.875Z,102499.91
2023-01-03T07:48:54.820Z,102501.44
2023-01-03T07:51:21.919Z,102509.19
2023-01-03T07:53:52.871Z,102504.78
2023-01-03T07:56:20.904Z,102505.06
2023-01-03T07:58:48.798Z,102498.84
2023-01-03T08:01:20.934Z,102508.97
2023-01-03T08:03:47.838Z,102502.47
2023-01-03T08:06:20.576Z,102511.38
2023-01-03T08:09:07.331Z,102516.44
2023-01-03T08:11:52.427Z,102522.25
2023-01-03T08:14:25.068Z,102515.38
2023-01-03T08:16:52.427Z,102524.69
2023-01-03T08:19:18.853Z,102526.56
2023-01-03T08:21:46.628Z,102528.66
2023-01-03T08:24:13.086Z,102527.34
2023-01-03T08:26:39.573Z,102526.72
2023-01-03T08:29:06.371Z,102529.25
2023-01-03T08:31:35.377Z,102533.78
2023-01-03T08:34:07.674Z,102531.38
2023-01-03T08:36:41.448Z,102532.13
2023-01-03T08:39:10.398Z,102532.44
2023-01-03T08:41:41.238Z,102539.72
2023-01-03T08:44:09.178Z,102542.81
2023-01-03T08:46:37.212Z,102538.44
2023-01-03T08:49:03.683Z,102549.63
2023-01-03T08:51:30.163Z,102555.44
2023-01-03T08:53:56.769Z,102557.94
2023-01-03T08:56:23.281Z,102557.94
2023-01-03T08:58:49.689Z,102562.56
2023-01-03T09:01:17.218Z,102563.19
2023-01-03T09:03:43.985Z,102561.31
2023-01-03T09:06:10.588Z,102558.03
2023-01-03T09:08:37.004Z,102567.09
2023-01-03T09:11:07.748Z,102564.13
2023-01-03T09:13:35.063Z,102573.94
2023-01-03T09:16:09.328Z,102570.81
2023-01-03T09:18:36.691Z,102573.59
2023-01-03T09:21:03.574Z,102571.59
2023-01-03T09:23:30.268Z,102579.84
2023-01-03T09:25:56.782Z,102577.50
2023-01-03T09:28:23.427Z,102586.22
2023-01-03T09:30:50.034Z,102584.50
2023-01-03T09:33:16.474Z,102583.59
2023-01-03T09:35:43.135Z,102588.97
2023-01-03T09:38:10.117Z,102584.84
2023-01-03T09:40:41.868Z,102584.78
2023-01-03T09:43:21.383Z,102584.28
2023-01-03T09:45:56.617Z,102579.38
2023-01-03T09:48:29.840Z,102575.00
2023-01-03T09:51:18.516Z,102573.63
2023-01-03T09:54:01.393Z,102560.16
2023-01-03T09:56:46.561Z,102568.06
2023-01-03T09:59:36.263Z,102565.38
2023-01-03T10:02:49.602Z,102570.66
2023-01-03T10:05:26.843Z,102577.78
2023-01-03T10:08:14.888Z,102569.09
2023-01-03T10:10:47.731Z,102585.34
2023-01-03T10:13:28.470Z,102582.53
2023-01-03T10:16:03.057Z,102575.06
2023-01-03T10:18:51.032Z,102576.72
2023-01-03T10:21:29.683Z,102577.63
2023-01-03T10:23:56.116Z,102563.81
2023-01-03T10:26:32.412Z,102562.06
2023-01-03T10:28:59.772Z,102562.53
2023-01-03T10:31:44.904Z,102567.06
2023-01-03T10:34:11.952Z,102554.72
2023-01-03T10:36:38.479Z,102562.75
2023-01-03T10:39:07.324Z,102562.50
2023-01-03T10:41:44.058Z,102557.00
2023-01-03T10:44:25.784Z,102556.56
2023-01-03T10:46:54.606Z,102551.03
2023-01-03T10:49:29.126Z,102548.59
2023-01-03T10:52:16.648Z,102549.25
2023-01-03T10:54:42.988Z,102540.63
2023-01-03T10:57:38.186Z,102542.47
2023-01-03T11:00:30.928Z,102552.09
2023-01-03T11:03:12.549Z,102547.31
2023-01-03T11:05:41.200Z,102539.00
2023-01-03T11:08:22.906Z,102542.75
2023-01-03T11:10:54.790Z,102545.97
2023-01-03T11:13:30.626Z,102551.88
2023-01-03T11:15:59.217Z,102540.41
2023-01-03T11:18:27.761Z,102532.47
2023-01-03T11:20:59.772Z,102530.38
2023-01-03T11:23:47.487Z,102523.75
2023-01-03T11:26:22.818Z,102518.00
2023-01-03T11:29:07.481Z,102518.69
2023-01-03T11:31:56.464Z,102521.66
2023-01-03T11:35:12.122Z,102521.00
2023-01-03T11:37:35.409Z,102522.75
2023-01-03T11:40:16.289Z,102516.75
2023-01-03T11:43:20.422Z,102518.34
2023-01-03T11:45:55.990Z,102513.34
2023-01-03T11:48:41.243Z,102500.69
2023-01-03T11:51:13.028Z,102499.38
2023-01-03T11:54:05.530Z,102495.78
2023-01-03T11:56:36.959Z,102493.34
2023-01-03T11:59:09.087Z,102483.47
2023-01-03T12:01:46.563Z,102481.63
2023-01-03T12:04:25.077Z,102470.63
2023-01-03T12:10:36.868Z,102470.75
2023-01-03T12:13:09.549Z,102478.63
2023-01-03T12:15:41.270Z,102473.34
2023-01-03T12:18:17.335Z,102465.38
2023-01-03T12:20:48.691Z,102470.22
2023-01-03T12:23:40.485Z,102479.47
2023-01-03T12:26:09.539Z,102478.66
2023-01-03T12:28:51.136Z,102476.69
2023-01-03T12:31:31.554Z,102462.41
2023-01-03T12:34:43.242Z,102452.44
2023-01-03T12:37:27.387Z,102457.50
2023-01-03T12:40:01.996Z,102450.22
2023-01-03T12:42:41.224Z,102444.00
2023-01-03T12:45:10.034Z,102440.66
2023-01-03T12:47:52.809Z,102439.59
2023-01-03T12:50:26.947Z,102437.91
2023-01-03T12:53:18.956Z,102426.16
2023-01-03T12:56:19.191Z,102425.72
2023-01-03T12:59:03.301Z,102427.91
2023-01-03T13:01:37.972Z,102423.88
2023-01-03T13:04:22.691Z,102417.19
2023-01-03T13:06:59.916Z,102420.41
2023-01-03T13:09:32.051Z,102421.44
2023-01-03T13:12:08.819Z,102434.38
2023-01-03T13:14:58.060Z,102421.69
2023-01-03T13:17:26.228Z,102437.22
2023-01-03T13:20:27.807Z,102420.41
2023-01-03T13:22:55.992Z,102407.28
2023-01-03T13:25:33.007Z,102414.59
2023-01-03T13:28:20.867Z,102415.66
2023-01-03T13:30:47.611Z,102413.59
2023-01-03T13:33:16.520Z,102430.09
2023-01-03T13:35:42.858Z,102418.69
2023-01-03T13:38:25.924Z,102430.41
2023-01-03T13:41:17.567Z,102427.44
2023-01-03T13:43:48.802Z,102420.56
2023-01-03T13:46:25.007Z,102416.69
2023-01-03T13:49:01.930Z,102425.31
2023-01-03T13:51:47.089Z,102418.88
2023-01-03T13:54:13.376Z,102419.25
2023-01-03T13:56:42.714Z,102414.19
2023-01-03T13:59:15.212Z,102404.88
2023-01-03T14:02:11.736Z,102408.50
2023-01-03T14:05:06.141Z,102404.31
2023-01-03T14:07:51.279Z,102404.03
2023-01-03T14:10:38.642Z,102403.41
2023-01-03T14:13:11.120Z,102403.50
2023-01-03T14:15:37.570Z,102404.03
2023-01-03T14:18:22.210Z,102400.16
2023-01-03T14:20:52.084Z,102403.19
2023-01-03T14:23:58.511Z,102403.59
2023-01-03T14:26:16.426Z,102413.44
2023-01-03T14:28:47.668Z,102397.97
2023-01-03T14:31:20.624Z,102397.44
2023-01-03T14:33:58.515Z,102407.38
2023-01-03T14:36:25.301Z,102401.78
2023-01-03T14:38:52.911Z,102415.50
2023-01-03T14:41:39.952Z,102417.03
2023-01-03T14:44:10.328Z,102412.00
2023-01-03T14:46:38.348Z,102408.56
2023-01-03T14:49:07.683Z,102412.59
2023-01-03T14:51:35.962Z,102417.41
2023-01-03T14:54:03.292Z,102415.94
2023-01-03T14:56:30.042Z,102416.78
2023-01-03T14:58:56.894Z,102412.28
2023-01-03T15:01:23.938Z,102413.97
2023-01-03T15:03:51.588Z,102419.13
2023-01-03T15:06:24.425Z,102415.50
2023-01-03T15:08:56.508Z,102413.63
2023-01-03T15:11:34.796Z,102419.59
2023-01-03T15:14:05.906Z,102420.31
2023-01-03T15:16:37.366Z,102415.44
2023-01-03T15:19:11.912Z,102408.59
2023-01-03T15:21:39.250Z,102401.31
2023-01-03T15:24:10.271Z,102403.22
2023-01-03T15:26:41.433Z,102408.00
2023-01-03T15:29:18.035Z,102409.50
2023-01-03T15:31:55.114Z,102412.44
2023-01-03T15:34:26.045Z,102399.63
2023-01-03T15:36:58.156Z,102411.00
2023-01-03T15:39:45.789Z,102413.97
2023-01-03T15:42:44.717Z,102406.47
2023-01-03T15:45:19.560Z,102407.13
2023-01-03T15:47:46.127Z,102409.13
2023-01-03T15:50:20.685Z,102404.66
2023-01-03T15:52:47.971Z,102395.72
2023-01-03T15:55:15.771Z,102399.16
2023-01-03T15:57:46.898Z,102403.53
2023-01-03T16:00:16.674Z,102395.25
2023-01-03T16:02:43.650Z,102390.94
2023-01-03T16:05:17.948Z,102389.84
2023-01-03T16:07:48.312Z,102383.78
2023-01-03T16:10:14.766Z,102393.25
2023-01-03T16:12:42.187Z,102396.69
2023-01-03T16:15:17.181Z,102389.09
2023-01-03T16:17:43.844Z,102391.38
2023-01-03T16:20:14.491Z,102391.03
2023-01-03T16:22:52.462Z,102388.28
2023-01-03T16:25:25.538Z,102382.97
2023-01-03T16:27:52.166Z,102390.63
2023-01-03T16:30:18.646Z,102382.22
2023-01-03T16:32:45.039Z,102372.38
2023-01-03T16:35:19.156Z,102365.16
2023-01-03T16:37:45.623Z,102364.59
2023-01-03T16:40:18.450Z,102364.53
2023-01-03T16:42:44.881Z,102362.13
2023-01-03T16:45:11.633Z,102368.31
2023-01-03T16:47:38.197Z,102363.66
2023-01-03T16:50:16.194Z,102363.25
2023-01-03T16:52:45.544Z,102364.19
2023-01-03T16:55:16.331Z,102355.63
2023-01-03T16:57:43.812Z,102353.22
2023-01-03T17:00:24.008Z,102356.94
2023-01-03T17:02:50.704Z,102355.16
2023-01-03T17:05:17.859Z,102351.91
2023-01-03T17:07:45.734Z,102354.06
2023-01-03T17:10:31.498Z,102361.38
2023-01-03T17:12:58.331Z,102355.88
2023-01-03T17:15:24.767Z,102351.88
2023-01-03T17:17:51.175Z,102344.69
2023-01-03T17:20:19.698Z,102344.22
2023-01-03T17:22:55.854Z,102334.16
2023-01-03T17:25:22.562Z,102321.13
2023-01-03T17:27:57.259Z,102327.78
2023-01-03T17:30:25.663Z,102335.16
2023-01-03T17:32:52.084Z,102325.69
2023-01-03T17:35:19.093Z,102330.53
2023-01-03T17:38:23.560Z,102336.63
2023-01-03T17:40:34.249Z,102337.50
2023-01-03T17:43:01.461Z,102339.81
2023-01-03T17:45:46.613Z,102331.28
2023-01-03T17:48:32.783Z,102331.16
2023-01-03T17:50:59.394Z,102329.13
2023-01-03T17:53:25.985Z,102331.88
2023-01-03T17:55:52.684Z,102333.16
2023-01-03T17:58:24.951Z,102338.56
2023-01-03T18:00:51.334Z,102329.50
2023-01-03T18:03:17.886Z,102328.91
2023-01-03T18:05:44.887Z,102324.38
2023-01-03T18:08:19.180Z,102325.75
2023-01-03T18:10:47.458Z,102315.97
2023-01-03T18:13:27.143Z,102313.13
2023-01-03T18:15:54.271Z,102315.34
2023-01-03T18:18:22.850Z,102314.75
2023-01-03T18:20:49.500Z,102311.03
2023-01-03T18:23:17.934Z,102307.06
2023-01-03T18:25:44.985Z,102302.22
2023-01-03T18:28:12.996Z,102306.63
2023-01-03T18:30:39.504Z,102310.31
2023-01-03T18:33:05.936Z,102308.13
2023-01-03T18:35:37.840Z,102298.06
2023-01-03T18:38:05.010Z,102289.50
2023-01-03T18:40:31.683Z,102287.19
2023-01-03T18:43:10.239Z,102290.28
2023-01-03T18:45:37.995Z,102278.91
2023-01-03T18:48:04.863Z,102269.88
2023-01-03T18:50:31.532Z,102274.72
2023-01-03T18:53:00.854Z,102269.19
2023-01-03T18:55:28.342Z,102273.63
2023-01-03T18:57:54.923Z,102268.22
2023-01-03T19:00:24.154Z,102265.91
2023-01-03T19:02:51.534Z,102267.44
2023-01-03T19:05:18.809Z,102267.44
2023-01-03T19:07:46.556Z,102262.84
2023-01-03T19:10:21.749Z,102258.84
2023-01-03T19:12:49.110Z,102247.97
2023-01-03T19:15:16.750Z,102254.03
2023-01-03T19:17:43.184Z,102236.56
2023-01-03T19:20:09.968Z,102241.88
2023-01-03T19:22:37.978Z,102244.50
2023-01-03T19:25:06.151Z,102239.56
2023-01-03T19:27:39.972Z,102232.75
2023-01-03T19:30:19.272Z,102233.75
2023-01-03T19:32:50.298Z,102218.88
2023-01-03T19:35:16.804Z,102212.81
2023-01-03T19:37:43.210Z,102221.19
2023-01-03T19:40:13.826Z,102219.22
2023-01-03T19:42:49.760Z,102208.63
2023-01-03T19:45:35.301Z,102204.44
2023-01-03T19:48:15.504Z,102205.34
2023-01-03T19:50:41.895Z,102187.81
2023-01-03T19:53:08.292Z,102194.75
2023-01-03T19:55:37.618Z,102196.94
2023-01-03T19:58:08.683Z,102194.63
2023-01-03T20:00:37.063Z,102190.13
2023-01-03T20:03:05.954Z,102181.72
2023-01-03T20:05:36.890Z,102181.84
2023-01-03T20:08:11.138Z,102174.44
2023-01-03T20:10:40.058Z,102170.69
2023-01-03T20:13:06.785Z,102165.50
2023-01-03T20:15:36.889Z,102165.50
2023-01-03T20:18:03.929Z,102160.50
2023-01-03T20:20:31.487Z,102149.25
2023-01-03T20:23:06.870Z,102143.25
2023-01-03T20:25:34.754Z,102137.28
2023-01-03T20:28:01.881Z,102136.53
2023-01-03T20:30:31.102Z,102135.84
2023-01-03T20:32:57.698Z,102123.81
2023-01-03T20:38:13.332Z,102114.19
2023-01-03T20:40:39.773Z,102121.75
2023-01-03T20:43:06.354Z,102114.28
2023-01-03T20:45:33.118Z,102114.78
2023-01-03T20:47:59.788Z,102103.09
2023-01-03T20:50:28.066Z,102101.47
2023-01-03T20:52:55.390Z,102095.75
2023-01-03T20:55:24.433Z,102088.22
2023-01-03T20:57:51.351Z,102081.03
2023-01-03T21:00:32.849Z,102076.50
2023-01-03T21:02:59.433Z,102079.59
2023-01-03T21:05:26.328Z,102059.34
2023-01-03T21:08:11.446Z,102067.91
2023-01-03T21:10:40.619Z,102047.44
2023-01-03T21:13:09.184Z,102048.31
2023-01-03T21:15:36.727Z,102048.47
2023-01-03T21:18:04.595Z,102052.75
2023-01-03T21:20:32.472Z,102060.09
2023-01-03T21:22:58.938Z,102061.66
2023-01-03T21:25:36.201Z,102059.59
2023-01-03T21:28:03.621Z,102053.72
2023-01-03T21:30:31.224Z,102047.53
2023-01-03T21:32:59.486Z,102054.78
2023-01-03T21:35:25.999Z,102050.63
2023-01-03T21:37:53.931Z,102050.25
2023-01-03T21:40:25.830Z,102039.69
2023-01-03T21:43:05.414Z,102054.56
2023-01-03T21:45:46.736Z,102049.69
2023-01-03T21:48:16.606Z,102056.53
2023-01-03T21:50:47.719Z,102045.19
2023-01-03T21:53:16.591Z,102046.31
2023-01-03T21:55:43.327Z,102048.28
2023-01-03T21:58:14.284Z,102052.06
2023-01-03T22:00:41.265Z,102028.19
2023-01-03T22:03:29.528Z,102020.56
2023-01-03T22:06:10.957Z,102019.13
2023-01-03T22:08:38.068Z,102019.97
2023-01-03T22:11:04.738Z,102013.44
2023-01-03T22:13:31.724Z,102015.41
2023-01-03T22:16:04.052Z,102003.56
2023-01-03T22:18:30.472Z,102001.69
2023-01-03T22:20:56.882Z,101992.13
2023-01-03T22:23:23.336Z,101990.63
2023-01-03T22:25:50.025Z,101990.63
2023-01-03T22:28:16.469Z,101973.09
2023-01-03T22:30:42.909Z,101984.00
2023-01-03T22:33:09.313Z,101980.41
2023-01-03T22:35:35.714Z,101974.31
2023-01-03T22:38:02.128Z,101984.38
2023-01-03T22:40:28.561Z,101975.59
2023-01-03T22:42:54.997Z,101980.06
2023-01-03T22:45:21.678Z,101976.66
2023-01-03T22:47:48.322Z,101967.28
2023-01-03T22:50:14.904Z,101974.78
2023-01-03T22:52:41.444Z,101965.53
2023-01-03T22:55:08.235Z,101969.31
2023-01-03T22:57:34.710Z,101956.06
2023-01-03T23:00:01.156Z,101963.19
2023-01-03T23:02:29.258Z,101958.59
2023-01-03T23:04:56.211Z,101947.22
2023-01-03T23:07:22.646Z,101931.41
2023-01-03T23:09:49.158Z,101925.00
2023-01-03T23:12:34.285Z,101915.56
2023-01-03T23:15:00.727Z,101906.72
2023-01-03T23:17:45.854Z,101909.38
2023-01-03T23:20:12.366Z,101896.19
2023-01-03T23:22:38.853Z,101894.81
2023-01-03T23:25:05.936Z,101887.75
2023-01-03T23:27:32.388Z,101882.31
2023-01-03T23:29:58.857Z,101867.53
2023-01-03T23:32:25.267Z,101871.78
2023-01-03T23:34:51.708Z,101865.75
2023-01-03T23:37:18.151Z,101863.47
2023-01-03T23:39:44.557Z,101854.56
2023-01-03T23:42:11.018Z,101849.16
2023-01-03T23:44:37.560Z,101846.50
2023-01-03T23:47:11.136Z,101841.97
2023-01-03T23:49:38.503Z,101835.50
2023-01-03T23:52:05.024Z,101824.06
2023-01-03T23:54:31.439Z,101827.81
2023-01-03T23:56:57.886Z,101821.94
2023-01-03T23:59:24.304Z,101816.41
